Time;durP1;ratioP1;P1;durP2;ratioP2;P2;SDS_P1;SDS_P2;PMS_P1;PMS_P2;Temp;Humidity;BMP_temperature;BMP_pressure;BME280_temperature;BME280_humidity;BME280_pressure;Samples;Min_cycle;Max_cycle;Signal;HPM_P1;HPM_P2
2023/07/09 00:02:13;;;;;;;4.88;3.58;;;;;;;;;;5092269;28;20052;-40
2023/07/09 00:04:39;;;;;;;4.13;3.15;;;22.90;78.10;;;;;;5092221;28;20127;-40
2023/07/09 00:07:15;;;;;;;4.00;3.55;;;23.30;63.30;;;;;;5092170;28;20072;-37
2023/07/09 00:09:42;;;;;;;4.32;3.65;;;23.40;78.40;;;;;;5091737;28;20054;-37
2023/07/09 00:12:10;;;;;;;4.28;3.63;;;23.30;63.30;;;;;;5092164;28;20135;-35
2023/07/09 00:14:37;;;;;;;5.47;3.80;;;23.90;70.30;;;;;;5092220;28;20135;-37
2023/07/09 00:17:04;;;;;;;4.30;3.70;;;23.10;77.80;;;;;;5091917;28;20052;-39
2023/07/09 00:19:31;;;;;;;4.20;3.50;;;;;;;;;;5092060;28;20607;-37
2023/07/09 00:21:58;;;;;;;4.93;3.40;;;;;;;;;;5087936;28;20486;-40
2023/07/09 00:24:26;;;;;;;4.15;3.40;;;23.50;78.90;;;;;;5071860;28;20084;-40
2023/07/09 00:26:53;;;;;;;4.93;3.88;;;;;;;;;;5071551;28;20127;-39
2023/07/09 00:29:21;;;;;;;4.60;3.80;;;;;;;;;;5071863;28;20136;-41
2023/07/09 00:31:47;;;;;;;3.92;3.50;;;23.20;70.40;;;;;;5071714;28;20052;-38
2023/07/09 00:34:17;;;;;;;4.10;3.50;;;23.60;78.50;;;;;;5071420;28;20072;-41
2023/07/09 00:36:44;;;;;;;4.68;4.00;;;23.20;77.50;;;;;;5078958;28;20052;-38
2023/07/09 00:39:15;;;;;;;4.10;3.70;;;22.90;78.30;;;;;;5090886;28;20063;-40
2023/07/09 00:41:43;;;;;;;6.72;3.50;;;22.40;76.20;;;;;;5092025;28;20127;-37
2023/07/09 00:44:29;;;;;;;4.80;3.70;;;23.60;74.50;;;;;;5091376;28;20131;-40
2023/07/09 00:47:24;;;;;;;4.63;3.75;;;23.30;63.40;;;;;;5091758;28;20056;-37
2023/07/09 00:49:57;;;;;;;4.43;3.97;;;24.00;79.20;;;;;;5055453;28;20649;-40
2023/07/09 00:52:25;;;;;;;4.40;3.63;;;23.30;63.40;;;;;;5091624;28;20085;-34
2023/07/09 00:54:52;;;;;;;4.35;3.63;;;;;;;;;;5091655;28;20463;-36
2023/07/09 00:57:22;;;;;;;5.72;3.72;;;23.30;78.90;;;;;;5095888;28;20131;-39
2023/07/09 00:59:50;;;;;;;3.58;3.17;;;23.60;79.40;;;;;;5095763;28;20135;-38
2023/07/09 01:02:23;;;;;;;4.78;4.07;;;23.70;79.10;;;;;;5094675;28;20131;-38
2023/07/09 01:04:50;;;;;;;5.22;3.58;;;22.50;66.40;;;;;;5084331;28;20040;-37
2023/07/09 01:07:17;;;;;;;4.28;3.75;;;23.30;78.40;;;;;;5095467;28;20052;-40
2023/07/09 01:09:44;;;;;;;4.75;3.85;;;;;;;;;;5095656;28;20509;-40
2023/07/09 01:12:12;;;;;;;4.93;3.70;;;;;;;;;;5095608;28;20461;-38
2023/07/09 01:14:40;;;;;;;4.35;3.80;;;24.20;64.90;;;;;;5095723;28;20098;-36
2023/07/09 01:17:07;;;;;;;4.50;3.55;;;23.20;66.50;;;;;;5095245;28;20135;-38
2023/07/09 01:19:42;;;;;;;4.30;3.88;;;23.30;63.30;;;;;;5082901;28;20557;-38
2023/07/09 01:22:11;;;;;;;5.05;3.55;;;22.40;78.00;;;;;;5075055;28;20053;-40
2023/07/09 01:24:53;;;;;;;4.95;3.42;;;23.40;79.20;;;;;;5075245;28;20048;-37
2023/07/09 01:27:21;;;;;;;4.38;3.85;;;23.60;79.00;;;;;;5075207;28;20051;-39
2023/07/09 01:29:48;;;;;;;4.45;3.45;;;22.80;78.30;;;;;;5074963;28;20135;-39
2023/07/09 01:32:18;;;;;;;4.65;3.80;;;23.30;63.20;;;;;;5074625;28;20048;-37
2023/07/09 01:34:47;;;;;;;5.32;3.85;;;;;;;;;;5076338;28;20056;-37
2023/07/09 01:37:16;;;;;;;4.72;4.00;;;23.20;78.40;;;;;;5086010;28;20044;-39
2023/07/09 01:39:42;;;;;;;4.65;3.85;;;23.00;78.40;;;;;;5095154;28;20131;-41
2023/07/09 01:42:09;;;;;;;4.85;4.00;;;23.20;66.50;;;;;;5094933;28;20044;-37
2023/07/09 01:44:36;;;;;;;4.80;3.78;;;23.20;78.40;;;;;;5094768;28;20051;-40
2023/07/09 01:47:04;;;;;;;4.57;3.78;;;23.20;63.10;;;;;;5094788;28;20089;-37
2023/07/09 01:49:32;;;;;;;5.32;3.80;;;23.40;63.30;;;;;;5094963;28;20439;-37
2023/07/09 01:52:00;;;;;;;4.00;3.60;;;23.40;78.50;;;;;;5094363;28;20048;-37
2023/07/09 01:54:29;;;;;;;4.50;3.53;;;23.50;66.50;;;;;;5094782;28;20508;-40
2023/07/09 01:57:01;;;;;;;4.20;3.80;;;23.50;64.00;;;;;;5094673;28;20159;-35
2023/07/09 01:59:28;;;;;;;4.57;3.58;;;;;;;;;;5094462;28;20048;-36
2023/07/09 02:01:57;;;;;;;4.57;3.85;;;23.40;78.50;;;;;;5094890;28;20079;-41
2023/07/09 02:04:28;;;;;;;6.25;3.70;;;22.90;67.60;;;;;;5094565;28;20040;-39
2023/07/09 02:06:55;;;;;;;4.47;3.70;;;;;;;;;;5090126;28;20044;-40
2023/07/09 02:09:21;;;;;;;4.43;3.78;;;23.80;78.70;;;;;;5082376;28;20473;-39
2023/07/09 02:11:49;;;;;;;4.93;3.97;;;23.20;63.20;;;;;;5094565;28;20134;-34
2023/07/09 02:14:16;;;;;;;4.65;4.10;;;;;;;;;;5094322;28;20193;-37
2023/07/09 02:16:44;;;;;;;5.15;4.00;;;;;;;;;;5094578;28;20151;-40
2023/07/09 02:19:11;;;;;;;4.05;3.65;;;22.30;77.90;;;;;;5094336;28;20066;-39
2023/07/09 02:21:37;;;;;;;4.57;3.83;;;23.70;78.80;;;;;;5094176;28;20052;-39
2023/07/09 02:24:05;;;;;;;5.03;3.83;;;;;;;;;;5087242;28;20048;-34
2023/07/09 02:26:31;;;;;;;4.47;4.00;;;23.20;78.30;;;;;;5074145;28;20127;-40
2023/07/09 02:28:59;;;;;;;4.35;3.72;;;23.00;70.20;;;;;;5074116;28;20611;-38
2023/07/09 02:31:30;;;;;;;4.38;3.97;;;23.00;78.50;;;;;;5073885;28;20063;-35
2023/07/09 02:33:57;;;;;;;4.03;3.58;;;22.70;69.00;;;;;;5073622;28;20473;-39
2023/07/09 02:36:25;;;;;;;4.90;4.05;;;22.90;78.20;;;;;;5089987;28;20054;-37
2023/07/09 02:38:52;;;;;;;7.25;3.65;;;23.00;78.90;;;;;;5094125;28;20048;-36
2023/07/09 02:41:18;;;;;;;5.43;4.00;;;23.70;78.60;;;;;;5093829;28;20568;-38
2023/07/09 02:43:45;;;;;;;4.72;3.80;;;;;;;;;;5093585;28;20136;-36
2023/07/09 02:46:13;;;;;;;5.53;3.97;;;22.30;78.10;;;;;;5093939;28;20127;-37
2023/07/09 02:48:40;;;;;;;5.43;3.80;;;;;;;;;;5093438;28;20461;-37
2023/07/09 02:51:07;;;;;;;4.88;4.20;;;;;;;;;;5093764;28;20408;-34
2023/07/09 02:53:34;;;;;;;4.85;4.20;;;24.00;79.00;;;;;;5093490;28;20127;-38
2023/07/09 02:56:01;;;;;;;4.85;4.35;;;22.70;78.30;;;;;;5093639;28;20048;-39
2023/07/09 02:58:28;;;;;;;5.72;4.03;;;23.40;68.00;;;;;;5093711;28;20044;-36
2023/07/09 03:00:54;;;;;;;4.47;3.88;;;23.30;78.60;;;;;;5093699;28;20131;-36
2023/07/09 03:03:22;;;;;;;4.32;3.90;;;23.70;63.40;;;;;;5093378;28;20071;-36
2023/07/09 03:05:49;;;;;;;4.05;3.65;;;;;;;;;;5092700;28;20149;-35
2023/07/09 03:08:16;;;;;;;4.93;3.92;;;22.90;77.90;;;;;;5093204;28;20111;-36
2023/07/09 03:10:43;;;;;;;5.07;3.92;;;22.90;78.10;;;;;;5093558;28;20123;-36
2023/07/09 03:13:09;;;;;;;4.35;3.83;;;22.90;78.10;;;;;;5093165;28;20091;-38
2023/07/09 03:15:36;;;;;;;4.00;3.60;;;23.10;71.60;;;;;;5093463;28;20139;-36
2023/07/09 03:18:03;;;;;;;4.80;3.80;;;23.10;78.40;;;;;;5093091;28;20048;-39
2023/07/09 03:20:31;;;;;;;4.85;4.20;;;23.10;62.90;;;;;;5091748;28;20040;-36
2023/07/09 03:22:58;;;;;;;4.32;3.80;;;;;;;;;;5081208;28;20048;-37
2023/07/09 03:25:25;;;;;;;4.45;3.85;;;23.50;79.10;;;;;;5073249;28;20048;-36
2023/07/09 03:27:52;;;;;;;4.10;3.70;;;23.00;78.50;;;;;;5073122;28;20102;-37
2023/07/09 03:30:19;;;;;;;4.40;3.90;;;;;;;;;;5072546;28;20560;-35
2023/07/09 03:32:46;;;;;;;5.63;4.20;;;;;;;;;;5090078;28;20121;-38
2023/07/09 03:35:13;;;;;;;4.70;4.20;;;;;;;;;;5091542;28;20052;-35
2023/07/09 03:37:41;;;;;;;5.65;3.90;;;23.00;78.80;;;;;;5092379;28;20048;-37
2023/07/09 03:40:10;;;;;;;4.45;3.88;;;22.60;78.60;;;;;;5093037;28;20127;-36
2023/07/09 03:42:37;;;;;;;4.72;4.00;;;23.10;67.90;;;;;;5092849;28;20055;-37
2023/07/09 03:45:04;;;;;;;5.47;4.18;;;22.80;78.20;;;;;;5092718;28;20048;-36
2023/07/09 03:47:31;;;;;;;5.07;4.20;;;;;;;;;;5091994;28;20564;-36
2023/07/09 03:49:58;;;;;;;4.82;4.13;;;23.30;78.50;;;;;;5092619;28;20463;-40
2023/07/09 03:52:25;;;;;;;5.20;4.05;;;23.20;78.80;;;;;;5092633;28;20131;-38
2023/07/09 03:54:53;;;;;;;4.78;4.07;;;23.30;78.90;;;;;;5092976;28;20123;-36
2023/07/09 03:57:20;;;;;;;6.38;4.35;;;22.50;77.80;;;;;;5092500;28;20131;-36
2023/07/09 03:59:46;;;;;;;5.53;3.80;;;23.30;78.60;;;;;;5092660;28;20078;-39
2023/07/09 04:02:13;;;;;;;4.75;4.30;;;;;;;;;;5092299;28;20139;-39
2023/07/09 04:04:40;;;;;;;4.53;4.00;;;23.10;77.90;;;;;;5091108;28;20050;-38
2023/07/09 04:07:07;;;;;;;5.63;4.18;;;22.90;78.20;;;;;;5092676;28;20151;-38
2023/07/09 04:09:34;;;;;;;5.25;3.78;;;;;;;;;;5092508;28;20127;-34
2023/07/09 04:12:02;;;;;;;4.53;3.90;;;23.40;78.60;;;;;;5092428;28;20044;-40
2023/07/09 04:14:29;;;;;;;5.07;4.00;;;23.40;78.20;;;;;;5092477;28;20054;-36
2023/07/09 04:16:57;;;;;;;4.78;4.10;;;;;;;;;;5092198;28;20131;-36
2023/07/09 04:19:23;;;;;;;4.32;3.92;;;23.00;78.40;;;;;;5083499;28;20123;-39
2023/07/09 04:21:50;;;;;;;4.70;4.03;;;23.70;66.70;;;;;;5071875;28;20135;-37
2023/07/09 04:24:18;;;;;;;4.65;4.00;;;22.30;78.40;;;;;;5071892;28;20135;-35
2023/07/09 04:26:44;;;;;;;4.80;3.88;;;23.40;70.70;;;;;;5071719;28;20045;-36
2023/07/09 04:29:12;;;;;;;5.28;4.40;;;22.30;77.60;;;;;;5091338;28;20131;-36
2023/07/09 04:31:39;;;;;;;4.88;4.25;;;23.10;78.70;;;;;;5091285;28;20510;-36
2023/07/09 04:34:06;;;;;;;4.35;3.90;;;22.20;64.30;;;;;;5090408;28;20135;-38
2023/07/09 04:36:33;;;;;;;4.18;3.78;;;23.90;67.60;;;;;;5074841;28;20131;-36
2023/07/09 04:38:59;;;;;;;4.07;3.60;;;24.00;78.90;;;;;;5082544;28;20131;-37
2023/07/09 04:41:26;;;;;;;4.40;3.78;;;22.70;78.70;;;;;;5080950;28;20408;-36
2023/07/09 04:43:53;;;;;;;4.40;4.00;;;;;;;;;;5085965;28;20048;-36
2023/07/09 04:46:21;;;;;;;5.05;4.13;;;22.80;78.10;;;;;;5082394;28;20059;-37
2023/07/09 04:48:48;;;;;;;4.45;3.97;;;22.90;78.50;;;;;;5080548;28;20116;-38
2023/07/09 04:51:15;;;;;;;4.25;3.65;;;;;;;;;;5081966;28;20052;-36
2023/07/09 04:53:43;;;;;;;4.68;4.15;;;;;;;;;;5076262;28;20143;-37
2023/07/09 04:56:11;;;;;;;4.30;3.80;;;23.00;70.10;;;;;;5071021;28;20044;-36
2023/07/09 04:58:38;;;;;;;4.78;3.80;;;22.50;78.40;;;;;;5070883;28;20417;-37
2023/07/09 05:01:05;;;;;;;3.92;3.53;;;;;;;;;;5070523;28;20131;-39
2023/07/09 05:03:33;;;;;;;4.18;3.72;;;23.00;68.30;;;;;;5076509;28;20128;-35
2023/07/09 05:05:59;;;;;;;4.10;3.70;;;23.00;66.50;;;;;;5080250;28;20104;-36
2023/07/09 05:08:27;;;;;;;4.95;4.25;;;23.20;72.70;;;;;;5071127;28;20128;-38
2023/07/09 05:10:54;;;;;;;4.40;3.90;;;;;;;;;;5070710;28;20079;-35
2023/07/09 05:13:21;;;;;;;4.53;4.00;;;;;;;;;;5070335;28;20120;-35
2023/07/09 05:15:48;;;;;;;5.38;3.80;;;;;;;;;;5090600;28;20055;-33
2023/07/09 05:18:15;;;;;;;4.30;3.83;;;23.30;78.40;;;;;;5091576;28;20413;-40
2023/07/09 05:20:43;;;;;;;4.43;3.80;;;23.10;62.80;;;;;;5091507;28;20127;-36
2023/07/09 05:23:10;;;;;;;4.63;3.83;;;;;;;;;;5090677;28;20048;-36
2023/07/09 05:25:37;;;;;;;4.35;3.90;;;23.30;78.10;;;;;;5090289;28;20047;-37
2023/07/09 05:28:04;;;;;;;4.85;4.10;;;23.30;78.60;;;;;;5091545;28;20428;-38
2023/07/09 05:30:31;;;;;;;4.63;3.80;;;;;;;;;;5090336;28;20135;-36
2023/07/09 05:32:59;;;;;;;4.70;3.67;;;;;;;;;;5076460;28;20438;-33
2023/07/09 05:35:26;;;;;;;3.85;3.53;;;22.50;77.80;;;;;;5070049;28;20068;-37
2023/07/09 05:37:54;;;;;;;4.85;3.70;;;22.30;62.50;;;;;;5087533;28;20070;-37
2023/07/09 05:40:21;;;;;;;4.20;3.80;;;;;;;;;;5091273;28;20500;-36
2023/07/09 05:42:48;;;;;;;4.22;3.50;;;22.20;78.50;;;;;;5094735;28;20052;-35
2023/07/09 05:45:15;;;;;;;7.55;3.78;;;23.10;62.90;;;;;;5095301;28;20052;-39
2023/07/09 05:47:42;;;;;;;3.95;3.53;;;23.10;78.10;;;;;;5094850;28;20135;-38
2023/07/09 05:50:09;;;;;;;4.03;3.63;;;;;;;;;;5075292;28;20132;-33
2023/07/09 05:52:36;;;;;;;5.13;3.83;;;23.00;76.10;;;;;;5075038;28;20044;-38
2023/07/09 05:55:04;;;;;;;4.75;3.58;;;23.20;67.30;;;;;;5074667;28;20135;-38
2023/07/09 05:57:31;;;;;;;5.43;3.70;;;22.00;62.30;;;;;;5077655;28;20040;-36
2023/07/09 05:59:58;;;;;;;4.30;3.90;;;23.00;78.00;;;;;;5083075;28;20045;-37
2023/07/09 06:02:25;;;;;;;4.32;3.70;;;23.00;78.00;;;;;;5074625;28;20052;-40
2023/07/09 06:04:52;;;;;;;4.60;3.83;;;22.90;73.40;;;;;;5083990;28;20125;-36
2023/07/09 06:07:19;;;;;;;4.20;3.80;;;;;;;;;;5088691;28;20484;-37
2023/07/09 06:09:47;;;;;;;3.83;3.42;;;22.80;73.10;;;;;;5084644;28;20040;-38
2023/07/09 06:12:15;;;;;;;4.13;3.72;;;23.50;78.50;;;;;;5091798;28;20113;-39
2023/07/09 06:14:42;;;;;;;4.50;4.00;;;23.20;78.80;;;;;;5094617;28;20075;-34
2023/07/09 06:17:09;;;;;;;4.03;3.63;;;23.20;71.30;;;;;;5094751;28;20136;-36
2023/07/09 06:19:36;;;;;;;4.50;3.83;;;;;;;;;;5094399;28;20123;-35
2023/07/09 06:22:03;;;;;;;4.13;3.72;;;23.40;78.10;;;;;;5076586;28;20132;-37
2023/07/09 06:24:30;;;;;;;4.88;3.95;;;;;;;;;;5074090;28;20094;-33
2023/07/09 06:26:57;;;;;;;4.53;3.90;;;22.80;77.90;;;;;;5072714;28;20455;-39
2023/07/09 06:29:25;;;;;;;3.83;3.40;;;24.00;78.60;;;;;;5074395;28;20170;-37
2023/07/09 06:31:52;;;;;;;4.93;4.43;;;23.40;78.60;;;;;;5074275;28;20132;-38
2023/07/09 06:34:19;;;;;;;5.18;3.83;;;;;;;;;;5073964;28;20139;-36
2023/07/09 06:36:46;;;;;;;5.28;4.40;;;22.70;77.90;;;;;;5081333;28;20130;-38
2023/07/09 06:39:12;;;;;;;4.22;3.83;;;24.20;72.60;;;;;;5093934;28;20127;-33
2023/07/09 06:41:39;;;;;;;5.68;4.10;;;;;;;;;;5094350;28;20135;-37
2023/07/09 06:44:07;;;;;;;5.15;4.10;;;;;;;;;;5094003;28;20139;-33
2023/07/09 06:46:35;;;;;;;4.82;4.28;;;22.30;78.00;;;;;;5094269;28;20084;-37
2023/07/09 06:49:01;;;;;;;5.32;4.40;;;22.80;78.50;;;;;;5093939;28;20564;-36
2023/07/09 06:51:28;;;;;;;5.38;4.28;;;24.30;78.70;;;;;;5093865;28;20138;-39
2023/07/09 06:53:55;;;;;;;6.35;3.97;;;23.10;69.00;;;;;;5088808;28;20131;-39
2023/07/09 06:56:21;;;;;;;5.72;4.22;;;23.20;78.50;;;;;;5084707;28;20535;-38
2023/07/09 06:58:48;;;;;;;7.70;4.03;;;23.10;78.10;;;;;;5082598;28;20135;-37
2023/07/09 07:01:15;;;;;;;5.50;4.47;;;;;;;;;;5093849;28;20047;-35
2023/07/09 07:03:43;;;;;;;6.65;4.85;;;24.00;78.70;;;;;;5092528;28;20139;-35
2023/07/09 07:06:10;;;;;;;6.47;4.50;;;23.80;79.40;;;;;;5093798;28;20123;-36
2023/07/09 07:08:37;;;;;;;4.85;4.35;;;22.70;78.80;;;;;;5093660;28;20740;-38
2023/07/09 07:11:05;;;;;;;7.57;4.55;;;22.80;71.60;;;;;;5093530;28;20123;-35
2023/07/09 07:13:33;;;;;;;5.70;4.72;;;22.40;77.70;;;;;;5093437;28;20068;-40
2023/07/09 07:16:00;;;;;;;4.78;3.92;;;23.60;78.40;;;;;;5092574;28;20417;-39
2023/07/09 07:18:26;;;;;;;5.15;4.40;;;24.20;79.10;;;;;;5083046;28;20051;-38
2023/07/09 07:20:55;;;;;;;5.80;4.07;;;23.20;63.10;;;;;;5093395;28;20043;-37
2023/07/09 07:23:23;;;;;;;5.55;4.47;;;;;;;;;;5089155;28;20577;-34
2023/07/09 07:25:49;;;;;;;5.25;4.38;;;23.30;68.30;;;;;;5073232;28;20052;-37
2023/07/09 07:28:16;;;;;;;4.90;4.28;;;23.10;78.80;;;;;;5073149;28;20127;-35
2023/07/09 07:30:43;;;;;;;5.20;4.20;;;23.10;78.20;;;;;;5073194;28;20139;-38
2023/07/09 07:33:10;;;;;;;5.18;4.38;;;;;;;;;;5072997;28;20048;-36
2023/07/09 07:35:37;;;;;;;5.80;4.70;;;22.80;78.20;;;;;;5077456;28;20123;-39
2023/07/09 07:38:05;;;;;;;4.90;4.40;;;23.20;69.60;;;;;;5092533;28;20130;-37
2023/07/09 07:40:33;;;;;;;4.45;4.00;;;23.40;64.00;;;;;;5093151;28;20044;-36
2023/07/09 07:43:00;;;;;;;4.88;4.22;;;;;;;;;;5089774;28;20055;-37
2023/07/09 07:45:26;;;;;;;4.43;4.03;;;23.60;70.70;;;;;;5085531;28;20051;-38
2023/07/09 07:47:53;;;;;;;5.30;4.38;;;22.90;78.50;;;;;;5072462;28;20094;-40
2023/07/09 07:50:20;;;;;;;4.90;4.40;;;22.90;78.90;;;;;;5072743;28;20390;-36
2023/07/09 07:52:46;;;;;;;5.60;4.28;;;23.20;65.60;;;;;;5075140;28;20088;-35
2023/07/09 07:55:15;;;;;;;5.07;4.38;;;23.20;78.10;;;;;;5088154;28;20511;-38
2023/07/09 07:57:41;;;;;;;4.43;3.92;;;23.10;65.60;;;;;;5079106;28;20051;-37
2023/07/09 08:00:09;;;;;;;5.63;4.30;;;22.70;78.70;;;;;;5072942;28;20066;-39
2023/07/09 08:02:36;;;;;;;5.45;4.45;;;23.50;78.70;;;;;;5077695;28;20045;-38
2023/07/09 08:05:03;;;;;;;4.90;4.40;;;;;;;;;;5082152;28;20135;-36
2023/07/09 08:07:29;;;;;;;4.50;4.05;;;22.70;78.10;;;;;;5082381;28;20127;-39
2023/07/09 08:09:57;;;;;;;5.07;4.30;;;;;;;;;;5080929;28;20585;-38
2023/07/09 08:12:25;;;;;;;5.35;4.40;;;23.40;63.10;;;;;;5083096;28;20127;-38
2023/07/09 08:14:52;;;;;;;5.25;4.30;;;23.70;78.30;;;;;;5081189;28;20048;-37
2023/07/09 08:17:18;;;;;;;5.10;4.22;;;23.70;78.70;;;;;;5081493;28;20569;-38
2023/07/09 08:19:46;;;;;;;5.57;4.43;;;;;;;;;;5072193;28;20045;-34
2023/07/09 08:22:12;;;;;;;5.78;4.25;;;23.30;64.10;;;;;;5076979;28;20157;-37
2023/07/09 08:24:40;;;;;;;6.40;4.00;;;;;;;;;;5080650;28;20070;-34
2023/07/09 08:27:07;;;;;;;4.93;4.18;;;23.30;78.90;;;;;;5083842;28;20165;-36
2023/07/09 08:29:35;;;;;;;4.82;4.18;;;23.60;63.70;;;;;;5091957;28;20503;-39
2023/07/09 08:32:02;;;;;;;5.55;4.32;;;23.10;70.40;;;;;;5092058;28;20556;-36
2023/07/09 08:34:29;;;;;;;5.95;4.63;;;24.50;79.10;;;;;;5085755;28;20130;-36
2023/07/09 08:36:56;;;;;;;4.63;4.15;;;;;;;;;;5080562;28;20048;-34
2023/07/09 08:39:23;;;;;;;4.82;4.32;;;23.60;78.80;;;;;;5085013;28;20048;-39
2023/07/09 08:41:54;;;;;;;5.88;4.40;;;23.20;78.60;;;;;;5086972;28;20052;-36
2023/07/09 08:44:40;;;;;;;4.93;4.35;;;23.50;63.00;;;;;;5076692;28;20045;-37
2023/07/09 08:47:08;;;;;;;5.18;4.13;;;23.30;78.70;;;;;;5071463;28;20140;-37
2023/07/09 08:49:39;;;;;;;4.53;4.07;;;22.90;76.90;;;;;;5079512;28;20044;-38
2023/07/09 08:52:08;;;;;;;5.32;4.03;;;23.50;63.10;;;;;;5080796;28;20501;-36
2023/07/09 08:54:35;;;;;;;5.20;3.90;;;;;;;;;;5080156;28;20044;-37
2023/07/09 08:57:06;;;;;;;4.32;3.92;;;24.60;78.70;;;;;;5082567;28;20058;-40
2023/07/09 08:59:33;;;;;;;5.30;4.40;;;;;;;;;;5081880;28;20124;-36
2023/07/09 09:02:01;;;;;;;4.75;3.95;;;23.50;78.10;;;;;;5084238;28;20130;-39
2023/07/09 09:04:29;;;;;;;4.95;4.15;;;23.50;63.00;;;;;;5088871;28;20217;-35
2023/07/09 09:07:00;;;;;;;4.55;3.97;;;23.60;78.40;;;;;;5070805;28;20131;-39
2023/07/09 09:09:29;;;;;;;4.80;4.03;;;23.80;64.10;;;;;;5083003;28;20134;-37
2023/07/09 09:11:59;;;;;;;4.80;3.90;;;23.60;63.00;;;;;;5090967;28;20148;-36
2023/07/09 09:14:28;;;;;;;5.78;4.18;;;23.90;63.20;;;;;;5089917;28;20052;-39
2023/07/09 09:16:55;;;;;;;5.00;4.15;;;;;;;;;;5080252;28;20468;-39
2023/07/09 09:19:27;;;;;;;5.18;4.35;;;23.30;78.50;;;;;;5076610;28;20147;-40
2023/07/09 09:21:57;;;;;;;4.53;4.00;;;23.60;63.00;;;;;;5087483;28;20054;-41
2023/07/09 09:24:28;;;;;;;5.10;3.92;;;22.90;77.70;;;;;;5095576;28;20511;-41
2023/07/09 09:26:55;;;;;;;4.43;3.78;;;;;;;;;;5095447;28;20131;-37
2023/07/09 09:29:24;;;;;;;3.90;3.50;;;23.90;78.90;;;;;;5095743;28;20087;-39
2023/07/09 09:31:54;;;;;;;4.55;3.67;;;23.30;78.60;;;;;;5095746;28;20131;-41
2023/07/09 09:34:22;;;;;;;4.05;3.60;;;23.50;77.90;;;;;;5081258;28;20048;-40
2023/07/09 09:36:50;;;;;;;4.20;3.80;;;24.10;78.40;;;;;;5078909;28;20497;-40
2023/07/09 09:39:17;;;;;;;4.88;4.25;;;23.40;77.80;;;;;;5075199;28;20136;-40
2023/07/09 09:41:44;;;;;;;4.10;3.70;;;23.20;71.80;;;;;;5087554;28;20135;-38
2023/07/09 09:44:21;;;;;;;4.63;3.80;;;24.10;78.40;;;;;;5074938;28;20048;-41
2023/07/09 09:46:49;;;;;;;4.22;3.67;;;23.70;62.80;;;;;;5076276;28;20132;-37
2023/07/09 09:49:15;;;;;;;4.47;3.60;;;23.40;77.40;;;;;;5087346;28;20048;-41
2023/07/09 09:51:44;;;;;;;4.15;3.70;;;23.30;63.00;;;;;;5094673;28;20475;-39
2023/07/09 09:54:17;;;;;;;4.35;3.70;;;23.70;62.80;;;;;;5090819;28;20044;-40
2023/07/09 09:56:43;;;;;;;4.47;3.80;;;23.80;77.60;;;;;;5094299;28;20122;-41
2023/07/09 09:59:17;;;;;;;5.03;3.83;;;23.70;62.80;;;;;;5094969;28;20052;-38
2023/07/09 10:01:43;;;;;;;4.63;3.60;;;23.90;77.50;;;;;;5094920;28;20076;-40
2023/07/09 10:04:11;;;;;;;4.07;3.40;;;;;;;;;;5094457;28;20147;-37
2023/07/09 10:06:39;;;;;;;4.25;3.72;;;23.90;77.70;;;;;;5082701;28;20135;-40
2023/07/09 10:09:16;;;;;;;4.13;3.50;;;23.20;76.50;;;;;;5074226;28;20137;-40
2023/07/09 10:11:46;;;;;;;3.70;3.38;;;23.80;62.70;;;;;;5074568;28;20044;-36
2023/07/09 10:14:34;;;;;;;4.18;3.55;;;23.10;65.90;;;;;;5073428;28;20127;-39
2023/07/09 10:17:05;;;;;;;4.70;3.70;;;23.80;69.70;;;;;;5073615;28;20052;-40
2023/07/09 10:19:36;;;;;;;3.40;3.10;;;24.60;78.20;;;;;;5074371;28;20135;-39
2023/07/09 10:22:05;;;;;;;4.25;3.50;;;24.00;78.40;;;;;;5074309;28;20417;-39
2023/07/09 10:24:41;;;;;;;4.20;3.45;;;23.80;62.70;;;;;;5074332;28;20048;-41
2023/07/09 10:27:10;;;;;;;4.15;3.63;;;23.80;72.20;;;;;;5074204;28;20106;-40
2023/07/09 10:29:44;;;;;;;3.75;3.33;;;23.40;78.00;;;;;;5073829;28;20127;-40
2023/07/09 10:32:16;;;;;;;4.53;3.70;;;22.90;74.40;;;;;;5074203;28;20128;-37
2023/07/09 10:34:47;;;;;;;4.20;3.70;;;23.90;77.90;;;;;;5074315;28;20390;-39
2023/07/09 10:37:22;;;;;;;4.03;3.60;;;23.90;77.40;;;;;;5086547;28;20511;-41
2023/07/09 10:39:52;;;;;;;3.40;3.10;;;23.90;78.30;;;;;;5094331;28;20756;-38
2023/07/09 10:42:22;;;;;;;3.95;3.25;;;24.40;72.30;;;;;;5084056;28;20040;-38
2023/07/09 10:44:57;;;;;;;3.70;3.28;;;24.30;67.40;;;;;;5083748;28;20127;-40
2023/07/09 10:47:28;;;;;;;3.85;3.30;;;23.50;64.10;;;;;;5077581;28;20098;-35
2023/07/09 10:49:55;;;;;;;4.38;3.78;;;;;;;;;;5072334;28;20050;-36
2023/07/09 10:52:24;;;;;;;4.53;3.50;;;24.00;62.60;;;;;;5071992;28;20044;-37
2023/07/09 10:54:57;;;;;;;4.78;3.70;;;23.40;72.70;;;;;;5072791;28;20055;-40
2023/07/09 10:57:26;;;;;;;3.95;3.50;;;24.10;77.50;;;;;;5073026;28;20047;-41
2023/07/09 10:59:53;;;;;;;3.85;3.45;;;23.70;77.70;;;;;;5073790;28;20052;-41
2023/07/09 11:02:22;;;;;;;4.18;3.55;;;24.10;77.70;;;;;;5087765;28;20528;-40
2023/07/09 11:04:50;;;;;;;4.20;3.40;;;23.60;73.50;;;;;;5093605;28;20156;-39
2023/07/09 11:07:20;;;;;;;4.88;3.70;;;24.70;78.40;;;;;;5086908;28;20126;-41
2023/07/09 11:09:47;;;;;;;5.47;3.40;;;24.00;71.40;;;;;;5083545;28;20048;-39
2023/07/09 11:12:17;;;;;;;4.00;3.60;;;24.50;78.30;;;;;;5081724;28;20512;-40
2023/07/09 11:14:47;;;;;;;4.53;3.63;;;23.50;76.40;;;;;;5084680;28;20126;-41
2023/07/09 11:17:15;;;;;;;3.88;3.30;;;23.80;77.30;;;;;;5093358;28;20050;-41
2023/07/09 11:19:43;;;;;;;5.57;3.60;;;23.40;77.10;;;;;;5084789;28;20047;-39
2023/07/09 11:22:17;;;;;;;3.88;3.35;;;24.20;69.90;;;;;;5082474;28;20047;-39
2023/07/09 11:24:47;;;;;;;4.03;3.20;;;24.00;73.50;;;;;;5081577;28;20493;-40
2023/07/09 11:27:20;;;;;;;3.67;3.22;;;25.10;78.20;;;;;;5082409;28;20064;-41
2023/07/09 11:29:47;;;;;;;4.57;3.40;;;24.10;77.80;;;;;;5072668;28;20131;-38
2023/07/09 11:32:19;;;;;;;3.80;3.40;;;23.90;73.20;;;;;;5072606;28;20129;-38
2023/07/09 11:34:46;;;;;;;3.80;3.28;;;24.60;77.10;;;;;;5080743;28;20142;-40
2023/07/09 11:37:13;;;;;;;4.30;3.50;;;24.90;78.50;;;;;;5076470;28;20074;-40
2023/07/09 11:39:44;;;;;;;3.50;3.20;;;24.30;77.00;;;;;;5084935;28;20077;-40
2023/07/09 11:42:30;;;;;;;4.18;3.00;;;24.20;62.90;;;;;;5088587;28;20549;-37
2023/07/09 11:45:01;;;;;;;3.40;2.97;;;24.80;78.00;;;;;;5080258;28;20132;-41
2023/07/09 11:47:30;;;;;;;4.95;3.60;;;25.00;68.10;;;;;;5079381;28;20127;-39
2023/07/09 11:49:58;;;;;;;4.22;3.33;;;23.80;77.20;;;;;;5081817;28;20048;-40
2023/07/09 11:52:27;;;;;;;3.83;3.38;;;24.20;76.10;;;;;;5079031;28;20036;-40
2023/07/09 11:54:54;;;;;;;3.47;3.17;;;24.50;78.40;;;;;;5083950;28;20050;-40
2023/07/09 11:57:20;;;;;;;3.92;3.40;;;25.20;65.30;;;;;;5081206;28;20079;-39
2023/07/09 11:59:48;;;;;;;4.85;3.60;;;24.10;64.60;;;;;;5083513;28;20139;-40
2023/07/09 12:02:18;;;;;;;3.80;3.13;;;24.30;77.60;;;;;;5077839;28;20044;-40
2023/07/09 12:04:45;;;;;;;3.42;3.13;;;24.30;78.00;;;;;;5083627;28;20485;-40
2023/07/09 12:07:14;;;;;;;6.88;3.67;;;24.30;63.20;;;;;;5089992;28;20131;-38
2023/07/09 12:09:43;;;;;;;4.38;3.10;;;23.50;77.90;;;;;;5091524;28;20135;-37
2023/07/09 12:12:19;;;;;;;5.35;3.58;;;25.00;79.40;;;;;;5079000;28;20048;-41
2023/07/09 12:14:45;;;;;;;8.82;3.85;;;24.80;78.50;;;;;;5089192;28;20131;-41
2023/07/09 12:17:13;;;;;;;5.25;3.30;;;24.50;79.30;;;;;;5073404;28;20052;-40
2023/07/09 12:19:40;;;;;;;5.97;3.50;;;24.80;68.60;;;;;;5087430;28;20058;-41
2023/07/09 12:22:09;;;;;;;6.00;3.42;;;23.80;66.50;;;;;;5085507;28;20048;-39
2023/07/09 12:24:37;;;;;;;6.60;3.45;;;24.30;78.70;;;;;;5085561;28;20472;-40
2023/07/09 12:27:17;;;;;;;5.55;3.97;;;24.40;78.80;;;;;;5078219;28;20130;-40
2023/07/09 12:29:44;;;;;;;5.30;3.60;;;24.60;78.10;;;;;;5084955;28;20076;-39
2023/07/09 12:32:14;;;;;;;6.82;3.55;;;24.20;69.60;;;;;;5077373;28;20127;-36
2023/07/09 12:34:41;;;;;;;5.63;3.45;;;;;;;;;;5081917;28;20060;-40
2023/07/09 12:37:09;;;;;;;5.20;3.40;;;24.70;63.60;;;;;;5075121;28;20082;-39
2023/07/09 12:39:37;;;;;;;5.75;3.67;;;;;;;;;;5079902;28;20209;-36
2023/07/09 12:42:04;;;;;;;4.90;3.20;;;24.50;71.20;;;;;;5079615;28;20155;-38
2023/07/09 12:44:32;;;;;;;4.65;3.10;;;24.70;78.00;;;;;;5078543;28;20052;-40
2023/07/09 12:46:59;;;;;;;5.50;3.22;;;25.60;78.60;;;;;;5078045;28;20516;-41
2023/07/09 12:49:28;;;;;;;5.75;3.55;;;24.70;63.40;;;;;;5079569;28;20040;-37
2023/07/09 12:51:55;;;;;;;5.43;3.58;;;;;;;;;;5079418;28;20119;-39
2023/07/09 12:54:23;;;;;;;5.57;3.00;;;;;;;;;;5082389;28;20044;-38
2023/07/09 12:56:52;;;;;;;5.43;3.38;;;24.60;78.10;;;;;;5079412;28;20044;-40
2023/07/09 12:59:20;;;;;;;5.15;3.42;;;24.80;63.40;;;;;;5081503;28;20051;-38
2023/07/09 13:01:51;;;;;;;4.72;3.22;;;24.70;77.80;;;;;;5079113;28;20044;-32
2023/07/09 13:04:18;;;;;;;4.60;3.28;;;;;;;;;;5082418;28;20055;-36
2023/07/09 13:06:47;;;;;;;5.00;3.30;;;25.20;65.60;;;;;;5087632;28;20052;-33
2023/07/09 13:09:19;;;;;;;4.63;3.25;;;24.80;63.40;;;;;;5091556;28;20474;-35
2023/07/09 13:11:46;;;;;;;5.20;3.28;;;24.70;77.90;;;;;;5091307;28;20139;-33
2023/07/09 13:14:18;;;;;;;4.53;3.25;;;24.80;67.00;;;;;;5091270;28;20568;-36